Terminal Aerodrome Forecast
Issued by NWS

Home | Current Version | Previous Version | Text Only | Print | Product List | Glossary On
Versions: 1 2 3 4 5 6 7 8 9 10 11 12 13 14 15 16 17 18 19 20 21 22 23 24 25 26 27 28 29
839
FTAK31 PANC 211735
TAFAVD
TAF
PAVD 211735Z 2118/2218 VRB05KT P6SM OVC060
     FM220600 VRB04KT P6SM -SHSN SCT030 OVC050
     FM221200 04010G22KT P6SM SCT050 BKN100
     FM221500 05015G28KT P6SM BKN100
      AMD LTD TO CLD VIS AND WIND=

USA.gov is the U.S. government's official web portal to all federal, state and local government web resources and services.